sensor_id;sensor_type;location;lat;lon;timestamp;temperature;humidity
53645;DHT22;39547;45.554;12.068;2023-07-02T00:00:52;21.80;79.00
53645;DHT22;39547;45.554;12.068;2023-07-02T00:06:53;21.80;78.40
53645;DHT22;39547;45.554;12.068;2023-07-02T00:12:55;21.80;78.40
53645;DHT22;39547;45.554;12.068;2023-07-02T00:18:56;21.80;78.40
53645;DHT22;39547;45.554;12.068;2023-07-02T00:24:58;21.80;78.30
53645;DHT22;39547;45.554;12.068;2023-07-02T00:30:59;21.80;80.10
53645;DHT22;39547;45.554;12.068;2023-07-02T00:37:00;21.70;79.30
53645;DHT22;39547;45.554;12.068;2023-07-02T00:43:01;21.70;79.30
53645;DHT22;39547;45.554;12.068;2023-07-02T00:49:04;21.70;79.10
53645;DHT22;39547;45.554;12.068;2023-07-02T00:55:05;21.70;78.90
53645;DHT22;39547;45.554;12.068;2023-07-02T01:01:06;21.70;78.90
53645;DHT22;39547;45.554;12.068;2023-07-02T01:07:09;21.60;79.00
53645;DHT22;39547;45.554;12.068;2023-07-02T01:13:13;21.60;78.80
53645;DHT22;39547;45.554;12.068;2023-07-02T01:19:19;21.60;78.70
53645;DHT22;39547;45.554;12.068;2023-07-02T01:25:22;21.60;78.70
53645;DHT22;39547;45.554;12.068;2023-07-02T01:31:25;21.60;78.70
53645;DHT22;39547;45.554;12.068;2023-07-02T01:37:26;21.50;78.90
53645;DHT22;39547;45.554;12.068;2023-07-02T01:43:28;21.50;78.90
53645;DHT22;39547;45.554;12.068;2023-07-02T01:49:29;21.40;78.90
53645;DHT22;39547;45.554;12.068;2023-07-02T01:55:30;21.40;79.10
53645;DHT22;39547;45.554;12.068;2023-07-02T02:01:31;21.40;78.80
53645;DHT22;39547;45.554;12.068;2023-07-02T02:07:33;21.30;78.80
53645;DHT22;39547;45.554;12.068;2023-07-02T02:13:36;21.30;78.80
53645;DHT22;39547;45.554;12.068;2023-07-02T02:19:38;21.30;79.00
53645;DHT22;39547;45.554;12.068;2023-07-02T02:25:39;21.20;79.00
53645;DHT22;39547;45.554;12.068;2023-07-02T02:31:40;21.30;79.20
53645;DHT22;39547;45.554;12.068;2023-07-02T02:37:41;21.30;79.10
53645;DHT22;39547;45.554;12.068;2023-07-02T02:43:43;21.30;79.40
53645;DHT22;39547;45.554;12.068;2023-07-02T02:49:47;21.40;79.10
53645;DHT22;39547;45.554;12.068;2023-07-02T02:55:48;21.40;79.90
53645;DHT22;39547;45.554;12.068;2023-07-02T03:01:49;21.50;79.20
53645;DHT22;39547;45.554;12.068;2023-07-02T03:07:52;21.50;79.10
53645;DHT22;39547;45.554;12.068;2023-07-02T03:13:53;21.50;79.10
53645;DHT22;39547;45.554;12.068;2023-07-02T03:19:55;21.50;79.10
53645;DHT22;39547;45.554;12.068;2023-07-02T03:25:56;21.50;79.00
53645;DHT22;39547;45.554;12.068;2023-07-02T03:31:57;21.40;79.00
53645;DHT22;39547;45.554;12.068;2023-07-02T03:37:59;21.30;79.10
53645;DHT22;39547;45.554;12.068;2023-07-02T03:44:00;21.30;79.10
53645;DHT22;39547;45.554;12.068;2023-07-02T03:50:01;21.30;79.00
53645;DHT22;39547;45.554;12.068;2023-07-02T03:56:02;21.30;79.00
53645;DHT22;39547;45.554;12.068;2023-07-02T04:02:04;21.20;79.30
53645;DHT22;39547;45.554;12.068;2023-07-02T04:08:05;21.20;79.60
53645;DHT22;39547;45.554;12.068;2023-07-02T04:14:06;21.20;79.40
53645;DHT22;39547;45.554;12.068;2023-07-02T04:20:08;21.20;79.30
53645;DHT22;39547;45.554;12.068;2023-07-02T04:26:10;21.20;79.30
53645;DHT22;39547;45.554;12.068;2023-07-02T04:32:12;21.20;79.10
53645;DHT22;39547;45.554;12.068;2023-07-02T04:38:13;21.30;79.20
53645;DHT22;39547;45.554;12.068;2023-07-02T04:44:15;21.30;79.20
53645;DHT22;39547;45.554;12.068;2023-07-02T04:50:16;21.30;79.20
53645;DHT22;39547;45.554;12.068;2023-07-02T04:56:18;21.40;79.20
53645;DHT22;39547;45.554;12.068;2023-07-02T05:02:19;21.60;79.10
53645;DHT22;39547;45.554;12.068;2023-07-02T05:08:20;21.70;79.00
53645;DHT22;39547;45.554;12.068;2023-07-02T05:14:21;21.80;78.90
53645;DHT22;39547;45.554;12.068;2023-07-02T05:20:23;22.00;78.80
53645;DHT22;39547;45.554;12.068;2023-07-02T05:26:25;22.10;78.60
53645;DHT22;39547;45.554;12.068;2023-07-02T05:32:27;22.20;78.50
53645;DHT22;39547;45.554;12.068;2023-07-02T05:38:29;22.30;78.40
53645;DHT22;39547;45.554;12.068;2023-07-02T05:44:30;22.30;78.20
53645;DHT22;39547;45.554;12.068;2023-07-02T05:50:31;22.40;78.20
53645;DHT22;39547;45.554;12.068;2023-07-02T05:56:32;22.40;78.40
53645;DHT22;39547;45.554;12.068;2023-07-02T06:02:34;22.50;78.20
53645;DHT22;39547;45.554;12.068;2023-07-02T06:08:35;22.50;78.10
53645;DHT22;39547;45.554;12.068;2023-07-02T06:14:36;22.60;78.00
53645;DHT22;39547;45.554;12.068;2023-07-02T06:20:37;22.70;77.90
53645;DHT22;39547;45.554;12.068;2023-07-02T06:26:38;22.80;77.90
53645;DHT22;39547;45.554;12.068;2023-07-02T06:32:40;22.80;77.90
53645;DHT22;39547;45.554;12.068;2023-07-02T06:38:41;22.90;77.80
53645;DHT22;39547;45.554;12.068;2023-07-02T06:44:42;23.00;77.60
53645;DHT22;39547;45.554;12.068;2023-07-02T06:50:44;23.10;77.50
53645;DHT22;39547;45.554;12.068;2023-07-02T06:56:46;23.10;77.50
53645;DHT22;39547;45.554;12.068;2023-07-02T07:02:47;23.10;77.50
53645;DHT22;39547;45.554;12.068;2023-07-02T07:08:49;23.20;77.50
53645;DHT22;39547;45.554;12.068;2023-07-02T07:14:50;23.30;77.30
53645;DHT22;39547;45.554;12.068;2023-07-02T07:20:51;23.50;77.20
53645;DHT22;39547;45.554;12.068;2023-07-02T07:26:53;23.70;76.90
53645;DHT22;39547;45.554;12.068;2023-07-02T07:32:55;23.80;76.70
53645;DHT22;39547;45.554;12.068;2023-07-02T07:38:56;24.00;76.50
53645;DHT22;39547;45.554;12.068;2023-07-02T07:44:58;24.00;76.30
53645;DHT22;39547;45.554;12.068;2023-07-02T07:50:59;24.20;76.20
53645;DHT22;39547;45.554;12.068;2023-07-02T07:57:00;24.30;76.00
53645;DHT22;39547;45.554;12.068;2023-07-02T08:03:01;24.40;75.80
53645;DHT22;39547;45.554;12.068;2023-07-02T08:09:04;24.60;75.70
53645;DHT22;39547;45.554;12.068;2023-07-02T08:15:05;24.80;75.60
53645;DHT22;39547;45.554;12.068;2023-07-02T08:21:07;24.80;75.30
53645;DHT22;39547;45.554;12.068;2023-07-02T08:27:08;25.00;75.10
53645;DHT22;39547;45.554;12.068;2023-07-02T08:33:11;25.10;74.60
53645;DHT22;39547;45.554;12.068;2023-07-02T08:39:12;25.20;74.20
53645;DHT22;39547;45.554;12.068;2023-07-02T08:45:17;25.20;74.40
53645;DHT22;39547;45.554;12.068;2023-07-02T08:51:18;25.30;74.20
53645;DHT22;39547;45.554;12.068;2023-07-02T08:57:19;25.50;73.80
53645;DHT22;39547;45.554;12.068;2023-07-02T09:03:22;25.60;73.60
53645;DHT22;39547;45.554;12.068;2023-07-02T09:09:26;25.60;73.20
53645;DHT22;39547;45.554;12.068;2023-07-02T09:15:27;25.60;72.90
53645;DHT22;39547;45.554;12.068;2023-07-02T09:21:40;25.60;72.10
53645;DHT22;39547;45.554;12.068;2023-07-02T09:27:42;25.70;72.50
53645;DHT22;39547;45.554;12.068;2023-07-02T09:33:43;25.90;72.20
53645;DHT22;39547;45.554;12.068;2023-07-02T09:39:47;26.20;71.10
53645;DHT22;39547;45.554;12.068;2023-07-02T09:45:52;26.30;70.90
53645;DHT22;39547;45.554;12.068;2023-07-02T09:51:53;26.60;71.00
53645;DHT22;39547;45.554;12.068;2023-07-02T09:57:55;27.10;69.90
53645;DHT22;39547;45.554;12.068;2023-07-02T10:03:56;27.30;69.00
53645;DHT22;39547;45.554;12.068;2023-07-02T10:09:57;27.30;68.40
53645;DHT22;39547;45.554;12.068;2023-07-02T10:16:02;27.40;68.40
53645;DHT22;39547;45.554;12.068;2023-07-02T10:22:04;27.50;68.40
53645;DHT22;39547;45.554;12.068;2023-07-02T10:28:16;27.50;68.20
53645;DHT22;39547;45.554;12.068;2023-07-02T10:34:30;27.70;68.10
53645;DHT22;39547;45.554;12.068;2023-07-02T10:40:32;27.90;67.30
53645;DHT22;39547;45.554;12.068;2023-07-02T10:46:34;27.90;66.40
53645;DHT22;39547;45.554;12.068;2023-07-02T10:52:39;27.90;66.80
53645;DHT22;39547;45.554;12.068;2023-07-02T10:58:43;28.10;66.60
53645;DHT22;39547;45.554;12.068;2023-07-02T11:04:45;28.10;66.70
53645;DHT22;39547;45.554;12.068;2023-07-02T11:10:46;28.00;66.30
53645;DHT22;39547;45.554;12.068;2023-07-02T11:16:53;28.10;66.50
53645;DHT22;39547;45.554;12.068;2023-07-02T11:22:54;28.20;66.20
53645;DHT22;39547;45.554;12.068;2023-07-02T11:28:56;28.40;65.50
53645;DHT22;39547;45.554;12.068;2023-07-02T11:34:57;28.80;63.60
53645;DHT22;39547;45.554;12.068;2023-07-02T11:40:58;29.00;63.10
53645;DHT22;39547;45.554;12.068;2023-07-02T11:47:00;29.50;63.30
53645;DHT22;39547;45.554;12.068;2023-07-02T11:53:01;29.70;62.30
53645;DHT22;39547;45.554;12.068;2023-07-02T11:59:02;30.10;61.00
53645;DHT22;39547;45.554;12.068;2023-07-02T12:05:03;30.70;59.70
53645;DHT22;39547;45.554;12.068;2023-07-02T12:11:05;31.30;59.80
53645;DHT22;39547;45.554;12.068;2023-07-02T12:17:26;31.80;57.20
53645;DHT22;39547;45.554;12.068;2023-07-02T12:23:27;32.60;57.20
53645;DHT22;39547;45.554;12.068;2023-07-02T12:29:28;32.90;55.90
53645;DHT22;39547;45.554;12.068;2023-07-02T12:35:30;32.30;55.10
53645;DHT22;39547;45.554;12.068;2023-07-02T12:41:31;31.50;56.70
53645;DHT22;39547;45.554;12.068;2023-07-02T12:47:32;30.70;57.30
53645;DHT22;39547;45.554;12.068;2023-07-02T12:53:33;30.50;58.10
53645;DHT22;39547;45.554;12.068;2023-07-02T12:59:35;30.50;58.90
53645;DHT22;39547;45.554;12.068;2023-07-02T13:05:36;31.70;57.90
53645;DHT22;39547;45.554;12.068;2023-07-02T13:11:37;32.90;55.00
53645;DHT22;39547;45.554;12.068;2023-07-02T13:17:39;33.80;52.40
53645;DHT22;39547;45.554;12.068;2023-07-02T13:23:42;34.80;51.40
53645;DHT22;39547;45.554;12.068;2023-07-02T13:29:43;34.90;50.70
53645;DHT22;39547;45.554;12.068;2023-07-02T13:35:44;35.50;50.00
53645;DHT22;39547;45.554;12.068;2023-07-02T13:41:46;36.10;49.10
53645;DHT22;39547;45.554;12.068;2023-07-02T13:47:48;36.30;47.40
53645;DHT22;39547;45.554;12.068;2023-07-02T13:53:49;36.50;47.10
53645;DHT22;39547;45.554;12.068;2023-07-02T13:59:50;37.10;45.50
53645;DHT22;39547;45.554;12.068;2023-07-02T14:05:52;36.20;45.40
53645;DHT22;39547;45.554;12.068;2023-07-02T14:11:53;34.70;47.20
53645;DHT22;39547;45.554;12.068;2023-07-02T14:17:54;33.90;48.20
53645;DHT22;39547;45.554;12.068;2023-07-02T14:23:55;33.80;48.70
53645;DHT22;39547;45.554;12.068;2023-07-02T14:29:57;34.00;49.10
53645;DHT22;39547;45.554;12.068;2023-07-02T14:35:58;33.40;49.50
53645;DHT22;39547;45.554;12.068;2023-07-02T14:41:59;32.30;51.40
53645;DHT22;39547;45.554;12.068;2023-07-02T14:48:01;31.40;53.30
53645;DHT22;39547;45.554;12.068;2023-07-02T14:54:02;31.30;54.30
53645;DHT22;39547;45.554;12.068;2023-07-02T15:00:04;31.70;54.10
53645;DHT22;39547;45.554;12.068;2023-07-02T15:06:10;32.50;52.60
53645;DHT22;39547;45.554;12.068;2023-07-02T15:12:11;32.10;52.70
53645;DHT22;39547;45.554;12.068;2023-07-02T15:18:13;33.00;52.00
53645;DHT22;39547;45.554;12.068;2023-07-02T15:24:14;32.90;51.10
53645;DHT22;39547;45.554;12.068;2023-07-02T15:30:15;32.90;51.50
53645;DHT22;39547;45.554;12.068;2023-07-02T15:36:16;32.80;51.50
53645;DHT22;39547;45.554;12.068;2023-07-02T15:42:18;32.20;52.50
53645;DHT22;39547;45.554;12.068;2023-07-02T15:48:19;31.30;53.70
53645;DHT22;39547;45.554;12.068;2023-07-02T15:54:21;30.80;54.60
53645;DHT22;39547;45.554;12.068;2023-07-02T16:00:22;30.10;55.50
53645;DHT22;39547;45.554;12.068;2023-07-02T16:06:23;29.80;56.30
53645;DHT22;39547;45.554;12.068;2023-07-02T16:12:30;29.50;57.10
53645;DHT22;39547;45.554;12.068;2023-07-02T16:18:31;29.30;57.60
53645;DHT22;39547;45.554;12.068;2023-07-02T16:24:33;29.10;58.30
53645;DHT22;39547;45.554;12.068;2023-07-02T16:30:34;28.90;58.80
53645;DHT22;39547;45.554;12.068;2023-07-02T16:36:35;28.90;59.00
53645;DHT22;39547;45.554;12.068;2023-07-02T16:42:37;28.90;59.00
53645;DHT22;39547;45.554;12.068;2023-07-02T16:48:38;28.80;59.10
53645;DHT22;39547;45.554;12.068;2023-07-02T16:54:39;28.60;59.20
53645;DHT22;39547;45.554;12.068;2023-07-02T17:00:40;28.50;59.60
53645;DHT22;39547;45.554;12.068;2023-07-02T17:06:46;28.40;60.00
53645;DHT22;39547;45.554;12.068;2023-07-02T17:12:52;28.30;60.00
53645;DHT22;39547;45.554;12.068;2023-07-02T17:18:53;28.20;60.40
53645;DHT22;39547;45.554;12.068;2023-07-02T17:24:55;28.10;60.50
53645;DHT22;39547;45.554;12.068;2023-07-02T17:30:57;28.10;60.60
53645;DHT22;39547;45.554;12.068;2023-07-02T17:37:02;28.20;60.70
53645;DHT22;39547;45.554;12.068;2023-07-02T17:43:04;28.20;60.50
53645;DHT22;39547;45.554;12.068;2023-07-02T17:49:05;28.10;60.30
53645;DHT22;39547;45.554;12.068;2023-07-02T17:55:07;28.00;60.40
53645;DHT22;39547;45.554;12.068;2023-07-02T18:01:10;27.80;60.70
53645;DHT22;39547;45.554;12.068;2023-07-02T18:07:16;27.70;61.00
53645;DHT22;39547;45.554;12.068;2023-07-02T18:13:18;27.60;60.50
53645;DHT22;39547;45.554;12.068;2023-07-02T18:19:21;27.50;60.90
53645;DHT22;39547;45.554;12.068;2023-07-02T18:25:27;27.30;61.10
53645;DHT22;39547;45.554;12.068;2023-07-02T18:31:29;27.30;61.30
53645;DHT22;39547;45.554;12.068;2023-07-02T18:37:30;27.10;61.60
53645;DHT22;39547;45.554;12.068;2023-07-02T18:43:32;27.00;61.70
53645;DHT22;39547;45.554;12.068;2023-07-02T18:49:33;26.90;62.00
53645;DHT22;39547;45.554;12.068;2023-07-02T18:55:35;26.80;62.20
53645;DHT22;39547;45.554;12.068;2023-07-02T19:01:36;26.70;63.20
53645;DHT22;39547;45.554;12.068;2023-07-02T19:07:38;26.70;63.20
53645;DHT22;39547;45.554;12.068;2023-07-02T19:13:39;26.60;63.50
53645;DHT22;39547;45.554;12.068;2023-07-02T19:19:41;26.50;63.80
53645;DHT22;39547;45.554;12.068;2023-07-02T19:25:46;26.50;64.50
53645;DHT22;39547;45.554;12.068;2023-07-02T19:31:47;26.40;64.80
53645;DHT22;39547;45.554;12.068;2023-07-02T19:37:48;26.30;65.50
53645;DHT22;39547;45.554;12.068;2023-07-02T19:43:50;26.20;66.70
53645;DHT22;39547;45.554;12.068;2023-07-02T19:49:55;26.20;66.70
53645;DHT22;39547;45.554;12.068;2023-07-02T19:56:00;26.10;66.90
53645;DHT22;39547;45.554;12.068;2023-07-02T20:02:04;26.00;67.30
53645;DHT22;39547;45.554;12.068;2023-07-02T20:08:05;25.90;68.00
53645;DHT22;39547;45.554;12.068;2023-07-02T20:14:06;25.80;68.80
53645;DHT22;39547;45.554;12.068;2023-07-02T20:20:08;25.80;68.20
53645;DHT22;39547;45.554;12.068;2023-07-02T20:26:13;25.70;68.70
53645;DHT22;39547;45.554;12.068;2023-07-02T20:32:16;25.70;69.10
53645;DHT22;39547;45.554;12.068;2023-07-02T20:38:19;25.60;69.30
53645;DHT22;39547;45.554;12.068;2023-07-02T20:44:20;25.50;69.50
53645;DHT22;39547;45.554;12.068;2023-07-02T20:50:22;25.50;69.80
53645;DHT22;39547;45.554;12.068;2023-07-02T20:56:23;25.40;70.00
53645;DHT22;39547;45.554;12.068;2023-07-02T21:02:24;25.30;70.80
53645;DHT22;39547;45.554;12.068;2023-07-02T21:08:26;25.30;71.10
53645;DHT22;39547;45.554;12.068;2023-07-02T21:14:27;25.20;71.70
53645;DHT22;39547;45.554;12.068;2023-07-02T21:20:28;25.20;71.70
53645;DHT22;39547;45.554;12.068;2023-07-02T21:26:29;25.20;71.80
53645;DHT22;39547;45.554;12.068;2023-07-02T21:32:31;25.20;73.00
53645;DHT22;39547;45.554;12.068;2023-07-02T21:38:33;25.20;73.20
53645;DHT22;39547;45.554;12.068;2023-07-02T21:44:34;25.20;72.70
53645;DHT22;39547;45.554;12.068;2023-07-02T21:50:35;25.20;72.30
53645;DHT22;39547;45.554;12.068;2023-07-02T21:56:36;25.30;72.20
53645;DHT22;39547;45.554;12.068;2023-07-02T22:02:38;25.20;73.20
53645;DHT22;39547;45.554;12.068;2023-07-02T22:08:39;25.20;73.10
53645;DHT22;39547;45.554;12.068;2023-07-02T22:14:40;25.10;72.80
53645;DHT22;39547;45.554;12.068;2023-07-02T22:20:41;25.00;72.60
53645;DHT22;39547;45.554;12.068;2023-07-02T22:26:43;24.80;73.50
53645;DHT22;39547;45.554;12.068;2023-07-02T22:32:44;24.50;74.20
53645;DHT22;39547;45.554;12.068;2023-07-02T22:38:45;24.20;74.80
53645;DHT22;39547;45.554;12.068;2023-07-02T22:44:47;24.00;77.00
53645;DHT22;39547;45.554;12.068;2023-07-02T22:50:48;23.80;77.20
53645;DHT22;39547;45.554;12.068;2023-07-02T22:56:49;23.70;77.30
53645;DHT22;39547;45.554;12.068;2023-07-02T23:02:51;23.70;77.40
53645;DHT22;39547;45.554;12.068;2023-07-02T23:08:52;23.60;77.60
53645;DHT22;39547;45.554;12.068;2023-07-02T23:14:53;23.60;77.80
53645;DHT22;39547;45.554;12.068;2023-07-02T23:20:55;23.50;77.70
53645;DHT22;39547;45.554;12.068;2023-07-02T23:26:56;23.40;77.80
53645;DHT22;39547;45.554;12.068;2023-07-02T23:32:57;23.30;78.50
53645;DHT22;39547;45.554;12.068;2023-07-02T23:38:58;23.20;78.40
53645;DHT22;39547;45.554;12.068;2023-07-02T23:45:00;23.10;78.70
53645;DHT22;39547;45.554;12.068;2023-07-02T23:51:02;23.10;78.60
53645;DHT22;39547;45.554;12.068;2023-07-02T23:57:03;23.10;79.10
